Time;durP1;ratioP1;P1;durP2;ratioP2;P2;SDS_P1;SDS_P2;PMS_P1;PMS_P2;Temp;Humidity;BMP_temperature;BMP_pressure;BME280_temperature;BME280_humidity;BME280_pressure;Samples;Min_cycle;Max_cycle;Signal;HPM_P1;HPM_P2
2022/01/04 00:00:37;;;;;;;18.15;7.22;;;8.60;79.70;;;;;;4996203;28;20050;-74
2022/01/04 00:03:03;;;;;;;23.30;7.47;;;8.60;79.80;;;;;;4996365;28;20060;-75
2022/01/04 00:05:28;;;;;;;17.52;6.35;;;8.60;79.80;;;;;;4995714;28;20130;-74
2022/01/04 00:07:54;;;;;;;15.30;6.53;;;8.70;79.90;;;;;;4978718;28;20091;-75
2022/01/04 00:10:23;;;;;;;14.18;6.22;;;8.70;79.90;;;;;;4995909;28;20047;-74
2022/01/04 00:15:34;;;;;;;19.05;6.18;;;8.70;80.00;;;;;;4995617;28;20046;-74
2022/01/04 00:18:00;;;;;;;18.38;6.30;;;8.70;79.90;;;;;;4979153;28;20462;-75
2022/01/04 00:20:26;;;;;;;21.52;6.18;;;8.70;79.90;;;;;;4996144;28;20049;-75
2022/01/04 00:22:52;;;;;;;20.80;5.65;;;8.70;79.90;;;;;;4994148;28;20042;-74
2022/01/04 00:25:18;;;;;;;17.00;5.50;;;8.70;80.00;;;;;;4989114;28;20050;-75
2022/01/04 00:27:44;;;;;;;19.27;6.60;;;8.70;79.90;;;;;;4993137;28;20125;-74
2022/01/04 00:30:10;;;;;;;15.18;5.78;;;8.70;80.00;;;;;;4978507;28;20129;-75
2022/01/04 00:32:36;;;;;;;16.95;6.55;;;8.70;80.00;;;;;;4976982;28;20058;-74
2022/01/04 00:35:01;;;;;;;17.20;6.20;;;8.80;80.00;;;;;;4995283;28;20048;-75
2022/01/04 00:37:27;;;;;;;21.88;6.50;;;8.80;80.00;;;;;;4977915;28;20046;-75
2022/01/04 00:39:53;;;;;;;16.65;6.43;;;8.80;80.00;;;;;;4995758;28;20043;-75
2022/01/04 00:42:18;;;;;;;22.33;6.93;;;8.80;80.00;;;;;;4967026;28;20126;-75
2022/01/04 00:44:44;;;;;;;25.85;7.80;;;8.80;80.00;;;;;;4964931;28;20096;-75
2022/01/04 00:47:10;;;;;;;13.57;5.65;;;8.80;80.10;;;;;;4995283;28;20386;-75
2022/01/04 00:49:37;;;;;;;17.83;6.80;;;8.80;80.00;;;;;;4995789;28;20177;-74
2022/01/04 00:52:03;;;;;;;19.58;7.22;;;8.80;80.00;;;;;;4988468;28;20462;-75
2022/01/04 00:54:28;;;;;;;20.13;7.50;;;8.80;80.00;;;;;;4967152;28;20043;-74
2022/01/04 00:56:54;;;;;;;22.92;7.78;;;8.80;80.00;;;;;;4989557;28;20170;-75
2022/01/04 00:59:20;;;;;;;19.10;7.45;;;8.80;79.90;;;;;;4984330;28;20041;-75
2022/01/04 01:01:46;;;;;;;14.98;6.78;;;8.80;79.90;;;;;;4993779;28;20472;-75
2022/01/04 01:04:11;;;;;;;13.80;6.13;;;8.80;79.90;;;;;;4977725;28;20497;-75
2022/01/04 01:06:38;;;;;;;20.95;7.72;;;8.90;79.90;;;;;;4993561;28;20042;-75
2022/01/04 01:09:04;;;;;;;19.02;6.80;;;8.80;79.70;;;;;;4966018;28;20050;-75
2022/01/04 01:11:30;;;;;;;18.50;6.55;;;8.80;79.70;;;;;;4993311;28;20069;-75
2022/01/04 01:13:56;;;;;;;22.10;6.65;;;8.80;79.70;;;;;;4995356;28;20053;-75
2022/01/04 01:16:22;;;;;;;18.45;7.00;;;8.90;79.70;;;;;;4976985;28;20391;-75
2022/01/04 01:18:48;;;;;;;18.70;7.05;;;8.80;79.60;;;;;;4976087;28;20078;-75
2022/01/04 01:21:13;;;;;;;18.83;7.32;;;8.80;79.60;;;;;;4988335;28;20117;-75
2022/01/04 01:23:40;;;;;;;17.50;7.55;;;8.80;79.50;;;;;;4990255;28;20121;-75
2022/01/04 01:26:07;;;;;;;17.50;6.72;;;8.80;79.50;;;;;;4977025;28;21586;-75
2022/01/04 01:28:35;;;;;;;14.85;7.20;;;8.90;79.70;;;;;;4961826;28;20051;-75
2022/01/04 01:31:01;;;;;;;16.67;7.75;;;8.90;79.60;;;;;;4964222;28;20046;-75
2022/01/04 01:33:27;;;;;;;18.83;7.50;;;8.80;79.60;;;;;;4965478;28;20050;-74
2022/01/04 01:35:57;;;;;;;19.52;8.07;;;8.90;79.70;;;;;;4958932;28;20530;-74
2022/01/04 01:38:23;;;;;;;17.13;6.93;;;8.90;79.70;;;;;;4988036;28;20050;-75
2022/01/04 01:40:50;;;;;;;18.48;8.05;;;8.90;79.60;;;;;;4994958;28;20059;-75
2022/01/04 01:43:16;;;;;;;15.70;8.05;;;8.90;79.60;;;;;;4983742;28;20078;-75
2022/01/04 01:45:42;;;;;;;19.13;7.95;;;8.90;79.60;;;;;;4958063;28;20069;-75
2022/01/04 01:48:08;;;;;;;16.33;7.45;;;8.90;79.60;;;;;;4982641;28;20129;-75
2022/01/04 01:50:34;;;;;;;20.98;8.48;;;8.80;79.60;;;;;;4975552;28;20075;-75
2022/01/04 01:53:00;;;;;;;19.30;8.98;;;8.80;79.60;;;;;;4989086;28;20050;-75
2022/01/04 01:55:26;;;;;;;20.90;8.25;;;8.80;79.60;;;;;;4994395;28;20051;-75
2022/01/04 01:57:53;;;;;;;18.30;8.27;;;8.90;79.60;;;;;;4973316;28;20101;-75
2022/01/04 02:00:21;;;;;;;18.25;8.80;;;8.90;79.60;;;;;;4984132;28;20093;-75
2022/01/04 02:02:47;;;;;;;17.85;8.35;;;8.90;79.60;;;;;;4975508;28;20045;-75
2022/01/04 02:05:13;;;;;;;17.52;8.23;;;8.90;79.70;;;;;;4975739;28;20054;-75
2022/01/04 02:07:41;;;;;;;17.60;9.20;;;8.90;79.70;;;;;;4968212;28;20053;-75
2022/01/04 02:10:08;;;;;;;16.92;8.70;;;8.80;79.70;;;;;;4994318;28;20038;-75
2022/01/04 02:12:44;;;;;;;22.65;9.43;;;8.90;79.70;;;;;;4992353;28;20421;-74
2022/01/04 02:15:12;;;;;;;22.48;9.27;;;8.90;79.70;;;;;;4976832;28;20054;-75
2022/01/04 02:17:38;;;;;;;20.75;9.20;;;8.90;79.70;;;;;;4993469;28;20053;-75
2022/01/04 02:20:05;;;;;;;19.55;9.35;;;8.90;79.70;;;;;;4994355;28;20050;-75
2022/01/04 02:22:31;;;;;;;17.60;9.77;;;8.90;79.80;;;;;;4986606;28;20046;-75
2022/01/04 02:24:57;;;;;;;17.88;8.82;;;8.90;79.80;;;;;;4974700;28;20053;-75
2022/01/04 02:27:22;;;;;;;22.75;9.80;;;8.90;79.80;;;;;;4965923;28;20386;-75
2022/01/04 02:29:49;;;;;;;20.00;11.68;;;8.90;79.80;;;;;;4976350;28;20409;-75
2022/01/04 02:32:15;;;;;;;22.95;10.43;;;8.90;79.80;;;;;;4993908;28;20045;-75
2022/01/04 02:34:46;;;;;;;23.83;10.82;;;8.90;79.70;;;;;;4973627;28;20097;-75
2022/01/04 02:37:12;;;;;;;24.70;11.10;;;8.90;79.80;;;;;;4965545;28;20486;-75
2022/01/04 02:39:38;;;;;;;22.25;11.25;;;8.90;79.70;;;;;;4962047;28;20054;-75
2022/01/04 02:42:07;;;;;;;20.38;9.98;;;8.90;79.70;;;;;;4980984;28;20038;-75
2022/01/04 02:44:33;;;;;;;22.83;11.02;;;8.90;79.70;;;;;;4987333;28;20541;-75
2022/01/04 02:46:59;;;;;;;25.08;10.80;;;8.90;79.70;;;;;;4975173;28;20170;-74
2022/01/04 02:49:25;;;;;;;21.73;11.85;;;8.90;79.80;;;;;;4975983;28;20389;-75
2022/01/04 02:51:51;;;;;;;21.75;11.68;;;8.90;79.80;;;;;;4993527;28;20506;-75
2022/01/04 02:54:17;;;;;;;23.08;12.35;;;8.90;79.80;;;;;;4986835;28;20043;-75
2022/01/04 02:56:43;;;;;;;19.95;11.10;;;8.90;79.80;;;;;;4976393;28;20046;-74
2022/01/04 02:59:09;;;;;;;18.27;11.13;;;8.90;79.80;;;;;;4985926;28;20483;-75
2022/01/04 03:01:35;;;;;;;19.63;11.30;;;8.90;79.80;;;;;;4974723;28;20047;-75
2022/01/04 03:04:00;;;;;;;19.05;10.35;;;8.90;79.80;;;;;;4987556;28;20485;-75
2022/01/04 03:06:26;;;;;;;21.30;12.57;;;8.90;79.80;;;;;;4993989;28;20054;-75
2022/01/04 03:08:51;;;;;;;22.63;13.02;;;8.90;79.80;;;;;;4989722;28;20249;-75
2022/01/04 03:11:17;;;;;;;23.70;12.52;;;8.90;79.80;;;;;;4974485;28;20047;-75
2022/01/04 03:13:43;;;;;;;23.13;13.20;;;8.90;79.90;;;;;;4984570;28;20117;-74
2022/01/04 03:16:09;;;;;;;22.02;12.70;;;8.90;79.90;;;;;;4993643;28;20122;-75
2022/01/04 03:18:39;;;;;;;21.15;12.10;;;8.90;79.90;;;;;;4992442;28;20494;-75
2022/01/04 03:21:05;;;;;;;22.98;12.57;;;8.90;80.00;;;;;;4993909;28;20401;-74
2022/01/04 03:23:30;;;;;;;22.30;11.60;;;8.90;80.00;;;;;;4993539;28;20046;-75
2022/01/04 03:25:56;;;;;;;19.40;11.88;;;8.90;80.00;;;;;;4975494;28;20035;-74
2022/01/04 03:28:23;;;;;;;26.25;13.00;;;8.90;80.00;;;;;;4969734;28;20494;-74
2022/01/04 03:30:49;;;;;;;26.98;12.65;;;8.90;80.00;;;;;;4987131;28;20038;-74
2022/01/04 03:33:15;;;;;;;23.73;13.20;;;8.90;80.00;;;;;;4995662;28;20418;-74
2022/01/04 03:35:41;;;;;;;24.10;12.38;;;8.90;80.00;;;;;;4977117;28;20062;-75
2022/01/04 03:38:06;;;;;;;26.27;12.82;;;8.90;80.00;;;;;;4989017;28;20042;-75
2022/01/04 03:40:32;;;;;;;20.98;12.30;;;8.90;80.00;;;;;;4966874;28;20070;-75
2022/01/04 03:42:57;;;;;;;21.80;11.25;;;9.00;80.50;;;;;;4984637;28;20036;-75
2022/01/04 03:45:23;;;;;;;22.58;12.45;;;8.90;80.00;;;;;;4987745;28;20482;-76
2022/01/04 03:47:49;;;;;;;22.63;12.07;;;8.90;80.00;;;;;;4979116;28;20084;-75
2022/01/04 03:50:14;;;;;;;22.45;12.02;;;9.00;80.10;;;;;;4986249;28;20085;-75
2022/01/04 03:52:40;;;;;;;22.33;12.95;;;9.00;80.10;;;;;;4993308;28;20050;-75
2022/01/04 03:55:07;;;;;;;26.90;13.43;;;9.00;80.00;;;;;;4995046;28;20469;-76
2022/01/04 03:57:34;;;;;;;22.45;13.95;;;9.00;80.10;;;;;;4996846;28;20053;-76
2022/01/04 03:59:59;;;;;;;23.33;13.30;;;9.00;80.00;;;;;;4990971;28;20054;-76
2022/01/04 04:02:25;;;;;;;26.38;13.63;;;9.00;80.00;;;;;;4988639;28;20042;-75
2022/01/04 04:04:51;;;;;;;21.55;12.93;;;9.00;80.00;;;;;;4974683;28;20145;-76
2022/01/04 04:07:16;;;;;;;21.45;12.60;;;9.00;80.00;;;;;;4992806;28;20046;-76
2022/01/04 04:09:42;;;;;;;21.55;13.25;;;9.00;80.00;;;;;;4993880;28;20434;-75
2022/01/04 04:12:08;;;;;;;19.13;12.75;;;9.00;80.40;;;;;;4944150;28;20077;-75
2022/01/04 04:14:33;;;;;;;25.80;14.38;;;9.00;80.00;;;;;;4994206;28;20046;-75
2022/01/04 04:16:59;;;;;;;28.25;14.25;;;9.00;80.00;;;;;;4995426;28;20401;-76
2022/01/04 04:19:25;;;;;;;24.20;12.88;;;9.00;80.00;;;;;;4977681;28;20477;-76
2022/01/04 04:21:50;;;;;;;22.85;13.98;;;9.00;80.00;;;;;;4994678;28;20046;-76
2022/01/04 04:24:16;;;;;;;20.85;12.93;;;9.00;80.00;;;;;;4978619;28;20046;-76
2022/01/04 04:26:41;;;;;;;23.75;12.98;;;9.00;80.00;;;;;;4994765;28;20489;-76
2022/01/04 04:29:09;;;;;;;19.88;12.35;;;9.00;80.00;;;;;;4996104;28;20067;-76
2022/01/04 04:31:34;;;;;;;30.23;15.98;;;9.00;80.00;;;;;;4981422;28;20053;-76
2022/01/04 04:34:00;;;;;;;25.50;13.98;;;9.00;80.00;;;;;;4970345;28;20050;-75
2022/01/04 04:36:27;;;;;;;21.20;13.00;;;9.00;80.00;;;;;;4990837;28;20053;-76
2022/01/04 04:38:52;;;;;;;24.25;14.23;;;9.00;80.10;;;;;;4989546;28;20051;-76
2022/01/04 04:41:18;;;;;;;23.40;13.95;;;9.10;80.20;;;;;;4981117;28;20542;-76
2022/01/04 04:43:44;;;;;;;24.60;14.20;;;9.10;80.10;;;;;;4982322;28;20445;-76
2022/01/04 04:46:09;;;;;;;29.38;14.75;;;9.10;80.10;;;;;;4986369;28;20047;-76
2022/01/04 04:48:35;;;;;;;27.77;13.50;;;9.10;80.10;;;;;;4979075;28;20085;-76
2022/01/04 04:51:00;;;;;;;25.00;13.75;;;9.10;80.10;;;;;;4964812;28;20055;-76
2022/01/04 04:53:26;;;;;;;18.55;12.05;;;9.10;80.10;;;;;;4976253;28;20390;-76
2022/01/04 04:55:52;;;;;;;22.05;13.40;;;9.10;80.10;;;;;;4992058;28;20430;-77
2022/01/04 04:58:17;;;;;;;20.70;12.75;;;9.10;80.10;;;;;;4995554;28;20121;-76
2022/01/04 05:00:43;;;;;;;23.38;14.38;;;9.10;80.10;;;;;;4988480;28;20062;-76
2022/01/04 05:03:09;;;;;;;22.70;14.55;;;9.10;80.10;;;;;;4976006;28;20133;-76
2022/01/04 05:05:34;;;;;;;18.90;12.85;;;9.10;80.10;;;;;;4986800;28;20177;-76
2022/01/04 05:08:00;;;;;;;23.60;14.57;;;9.10;80.10;;;;;;4974845;28;20070;-76
2022/01/04 05:10:25;;;;;;;22.55;13.70;;;9.10;80.10;;;;;;4966185;28;20129;-76
2022/01/04 05:12:51;;;;;;;22.10;13.70;;;9.10;80.10;;;;;;4995038;28;20169;-76
2022/01/04 05:15:17;;;;;;;24.80;14.95;;;9.10;80.10;;;;;;4977899;28;20557;-76
2022/01/04 05:17:42;;;;;;;28.05;14.10;;;9.10;80.10;;;;;;4978415;28;20549;-76
2022/01/04 05:20:08;;;;;;;19.55;12.77;;;9.10;80.10;;;;;;4978826;28;20069;-75
2022/01/04 05:22:34;;;;;;;25.17;15.73;;;9.10;80.10;;;;;;4979096;28;20043;-76
2022/01/04 05:25:00;;;;;;;25.75;15.07;;;9.10;80.10;;;;;;4991676;28;20060;-76
2022/01/04 05:27:25;;;;;;;25.75;13.40;;;9.10;80.10;;;;;;4966434;28;20074;-75
2022/01/04 05:29:51;;;;;;;23.20;13.70;;;9.10;80.10;;;;;;4978496;28;20046;-76
2022/01/04 05:32:17;;;;;;;26.90;13.35;;;9.10;80.10;;;;;;4982081;28;20052;-76
2022/01/04 05:34:42;;;;;;;27.48;15.50;;;9.10;80.10;;;;;;4958390;28;20045;-76
2022/01/04 05:37:09;;;;;;;25.70;14.90;;;9.10;80.10;;;;;;4973119;28;20042;-76
2022/01/04 05:39:34;;;;;;;24.90;13.65;;;9.10;80.10;;;;;;4994841;28;20050;-76
2022/01/04 05:42:00;;;;;;;21.55;14.00;;;9.10;80.10;;;;;;4994154;28;20044;-76
2022/01/04 05:44:26;;;;;;;30.10;14.90;;;9.20;80.10;;;;;;4995105;28;20417;-76
2022/01/04 05:46:51;;;;;;;29.00;16.23;;;9.10;80.10;;;;;;4991013;28;20052;-76
2022/01/04 05:49:17;;;;;;;23.20;14.32;;;9.10;80.10;;;;;;4995151;28;20042;-76
2022/01/04 05:51:43;;;;;;;26.83;14.85;;;9.10;80.10;;;;;;4992398;28;20466;-77
2022/01/04 05:54:09;;;;;;;23.42;14.57;;;9.10;80.10;;;;;;4994152;28;20042;-76
2022/01/04 05:56:35;;;;;;;21.30;14.57;;;9.10;80.10;;;;;;4973374;28;20434;-76
2022/01/04 05:59:00;;;;;;;23.38;12.65;;;9.10;80.00;;;;;;4989662;28;20043;-76
2022/01/04 06:01:26;;;;;;;21.45;13.10;;;9.10;80.00;;;;;;4964971;28;20389;-76
2022/01/04 06:03:52;;;;;;;19.42;11.52;;;9.10;79.80;;;;;;4986025;28;20046;-75
2022/01/04 06:06:18;;;;;;;19.77;12.35;;;9.10;79.80;;;;;;4992655;28;20050;-75
2022/01/04 06:08:44;;;;;;;18.73;12.20;;;9.10;79.70;;;;;;4993630;28;20038;-76
2022/01/04 06:11:29;;;;;;;18.75;12.48;;;9.00;80.00;;;;;;4993681;28;20073;-76
2022/01/04 06:16:38;;;;;;;23.75;13.95;;;9.10;79.60;;;;;;4993019;28;20049;-76
2022/01/04 06:19:04;;;;;;;23.23;13.98;;;9.10;79.60;;;;;;4994623;28;20038;-76
2022/01/04 06:21:29;;;;;;;21.73;13.52;;;9.00;79.60;;;;;;4994151;28;20117;-76
2022/01/04 06:23:55;;;;;;;19.27;13.07;;;9.10;79.70;;;;;;4976764;28;20050;-76
2022/01/04 06:26:21;;;;;;;29.70;15.50;;;9.10;79.70;;;;;;4993979;28;20049;-76
2022/01/04 06:28:46;;;;;;;25.13;13.45;;;9.10;79.80;;;;;;4977469;28;20087;-76
2022/01/04 06:31:12;;;;;;;20.45;14.20;;;9.10;79.80;;;;;;4957866;28;20035;-76
2022/01/04 06:33:38;;;;;;;24.23;14.23;;;9.00;79.80;;;;;;4985928;28;20042;-76
2022/01/04 06:36:03;;;;;;;23.60;14.88;;;9.10;79.80;;;;;;4976574;28;20034;-75
2022/01/04 06:38:29;;;;;;;22.85;14.00;;;9.00;79.80;;;;;;4963827;28;20939;-76
2022/01/04 06:40:55;;;;;;;21.55;13.80;;;9.10;79.90;;;;;;4981591;28;20109;-76
2022/01/04 06:43:20;;;;;;;24.00;14.75;;;9.10;79.90;;;;;;4977490;28;20062;-76
2022/01/04 06:45:46;;;;;;;24.35;15.63;;;9.10;79.90;;;;;;4995194;28;20046;-76
2022/01/04 06:48:11;;;;;;;22.25;13.45;;;9.00;79.80;;;;;;4976535;28;20054;-76
2022/01/04 06:50:37;;;;;;;25.75;15.77;;;9.00;79.80;;;;;;4994396;28;20055;-76
2022/01/04 06:53:03;;;;;;;23.90;15.82;;;9.00;79.80;;;;;;4992140;28;20128;-76
2022/01/04 06:55:29;;;;;;;22.33;16.08;;;9.10;79.90;;;;;;4976067;28;20162;-76
2022/01/04 06:57:54;;;;;;;26.83;17.77;;;9.00;79.90;;;;;;4993261;28;20078;-76
2022/01/04 07:00:20;;;;;;;21.80;16.05;;;9.00;79.90;;;;;;4977166;28;20056;-76
2022/01/04 07:02:45;;;;;;;26.95;15.98;;;9.10;80.00;;;;;;4990478;28;20109;-75
2022/01/04 07:05:11;;;;;;;26.40;16.65;;;9.00;80.00;;;;;;4987810;28;20050;-76
2022/01/04 07:07:37;;;;;;;25.95;16.55;;;9.00;80.00;;;;;;4977685;28;20406;-76
2022/01/04 07:10:03;;;;;;;27.00;18.83;;;9.00;80.10;;;;;;4979975;28;20053;-76
2022/01/04 07:12:28;;;;;;;24.98;15.90;;;9.10;80.20;;;;;;4996794;28;20045;-74
2022/01/04 07:14:54;;;;;;;26.42;17.23;;;9.10;80.20;;;;;;4984422;28;20042;-75
2022/01/04 07:17:20;;;;;;;27.13;17.98;;;9.00;80.20;;;;;;4997808;28;20073;-75
2022/01/04 07:19:47;;;;;;;26.83;17.20;;;9.00;80.20;;;;;;4996910;28;20089;-75
2022/01/04 07:22:12;;;;;;;25.38;17.42;;;9.00;80.20;;;;;;4997551;28;20490;-75
2022/01/04 07:24:38;;;;;;;24.27;17.55;;;9.00;80.20;;;;;;4963680;28;20058;-75
2022/01/04 07:27:05;;;;;;;26.45;17.33;;;9.10;80.20;;;;;;4993328;28;20042;-74
2022/01/04 07:29:30;;;;;;;23.35;17.42;;;9.10;80.20;;;;;;4979643;28;20050;-75
2022/01/04 07:31:56;;;;;;;20.40;15.88;;;9.00;80.20;;;;;;4980262;28;20462;-75
2022/01/04 07:34:22;;;;;;;22.83;16.63;;;9.00;80.10;;;;;;4978354;28;20526;-74
2022/01/04 07:36:47;;;;;;;21.85;14.77;;;9.10;80.10;;;;;;4997498;28;20038;-75
2022/01/04 07:39:13;;;;;;;26.15;14.18;;;9.10;80.10;;;;;;4993809;28;20041;-75
2022/01/04 07:41:39;;;;;;;20.35;13.57;;;9.00;79.90;;;;;;4997223;28;20121;-75
2022/01/04 07:44:04;;;;;;;20.83;14.00;;;9.00;79.90;;;;;;4995021;28;20122;-75
2022/01/04 07:46:30;;;;;;;21.83;14.15;;;9.00;79.90;;;;;;4979578;28;20054;-75
2022/01/04 07:48:56;;;;;;;24.88;15.43;;;9.00;79.90;;;;;;4979561;28;20042;-75
2022/01/04 07:51:21;;;;;;;25.88;15.85;;;9.10;79.90;;;;;;4996067;28;20047;-75
2022/01/04 07:53:47;;;;;;;27.30;17.00;;;9.00;79.90;;;;;;4977758;28;20421;-74
2022/01/04 07:56:12;;;;;;;21.13;15.00;;;9.00;79.90;;;;;;4996746;28;20450;-75
2022/01/04 07:58:38;;;;;;;25.65;17.55;;;9.10;80.00;;;;;;4996999;28;20085;-75
2022/01/04 08:01:04;;;;;;;24.60;15.48;;;9.00;79.90;;;;;;4996641;28;20081;-75
2022/01/04 08:03:29;;;;;;;25.40;16.95;;;9.00;79.90;;;;;;4994864;28;20050;-74
2022/01/04 08:05:55;;;;;;;30.05;17.00;;;9.10;80.00;;;;;;4943850;28;20470;-75
2022/01/04 08:08:21;;;;;;;23.85;15.60;;;9.00;80.00;;;;;;4986231;28;20085;-75
2022/01/04 08:10:48;;;;;;;26.33;16.90;;;9.00;79.90;;;;;;4986788;28;20046;-75
2022/01/04 08:13:14;;;;;;;24.13;16.00;;;9.00;79.90;;;;;;4978959;28;20121;-74
2022/01/04 08:15:39;;;;;;;30.55;17.23;;;9.10;80.00;;;;;;4994508;28;20133;-75
2022/01/04 08:18:05;;;;;;;23.23;17.05;;;9.00;80.00;;;;;;4979107;28;20096;-75
2022/01/04 08:20:31;;;;;;;23.30;16.88;;;9.00;80.00;;;;;;4975745;28;20058;-75
2022/01/04 08:22:57;;;;;;;25.50;16.42;;;9.10;80.10;;;;;;4986349;28;20034;-75
2022/01/04 08:25:23;;;;;;;24.92;18.83;;;9.00;80.00;;;;;;4994571;28;20060;-74
2022/01/04 08:27:49;;;;;;;29.05;18.13;;;9.00;80.00;;;;;;4996289;28;20046;-75
2022/01/04 08:30:14;;;;;;;23.20;16.90;;;9.10;80.10;;;;;;4965233;28;20098;-74
2022/01/04 08:32:41;;;;;;;28.20;17.48;;;9.10;80.10;;;;;;4958618;28;20072;-75
2022/01/04 08:35:08;;;;;;;25.48;16.25;;;9.10;80.10;;;;;;4985077;28;20086;-75
2022/01/04 08:37:34;;;;;;;21.83;15.60;;;9.10;80.10;;;;;;4984386;28;20375;-75
2022/01/04 08:40:00;;;;;;;28.08;16.63;;;9.10;80.10;;;;;;4995306;28;20085;-75
2022/01/04 08:42:26;;;;;;;24.42;16.65;;;9.10;80.10;;;;;;4978115;28;20046;-75
2022/01/04 08:44:54;;;;;;;32.45;16.65;;;9.10;80.10;;;;;;4994505;28;20559;-75
2022/01/04 08:47:20;;;;;;;23.83;15.57;;;9.10;80.10;;;;;;4995807;28;20084;-75
2022/01/04 08:49:45;;;;;;;26.05;16.20;;;9.10;80.10;;;;;;4975393;28;20042;-75
2022/01/04 08:52:11;;;;;;;32.58;17.10;;;9.10;80.10;;;;;;4973635;28;20081;-75
2022/01/04 08:54:38;;;;;;;23.70;13.48;;;9.10;80.10;;;;;;4981341;28;20494;-76
2022/01/04 08:57:04;;;;;;;25.23;14.40;;;9.00;80.00;;;;;;4976438;28;20589;-75
2022/01/04 08:59:32;;;;;;;21.58;13.13;;;9.10;80.00;;;;;;4974626;28;20074;-76
2022/01/04 09:01:58;;;;;;;19.98;12.48;;;9.10;80.00;;;;;;4983709;28;20490;-76
2022/01/04 09:04:24;;;;;;;20.45;12.48;;;9.10;80.00;;;;;;4994019;28;20055;-75
2022/01/04 09:06:50;;;;;;;19.90;11.05;;;9.10;80.00;;;;;;4992718;28;20046;-75
2022/01/04 09:09:16;;;;;;;19.20;10.65;;;9.10;80.00;;;;;;4977671;28;20046;-75
2022/01/04 09:11:42;;;;;;;17.52;10.95;;;9.10;79.90;;;;;;4981139;28;20498;-76
2022/01/04 09:14:22;;;;;;;17.83;9.30;;;9.10;79.90;;;;;;4989762;28;20449;-76
2022/01/04 09:19:32;;;;;;;13.48;7.47;;;9.10;79.80;;;;;;4990680;28;20046;-76
2022/01/04 09:21:58;;;;;;;13.45;8.32;;;9.00;79.70;;;;;;4976947;28;20398;-75
2022/01/04 09:24:23;;;;;;;15.93;7.47;;;9.10;79.80;;;;;;4995085;28;20070;-76
2022/01/04 09:26:49;;;;;;;12.52;6.80;;;9.10;79.70;;;;;;4993606;28;20121;-75
2022/01/04 09:29:19;;;;;;;12.88;6.47;;;9.10;79.70;;;;;;4977223;28;20053;-75
2022/01/04 09:31:47;;;;;;;14.68;7.03;;;9.10;79.60;;;;;;4979489;28;20165;-76
2022/01/04 09:34:13;;;;;;;16.52;7.63;;;9.10;79.60;;;;;;4994961;28;20073;-75
2022/01/04 09:36:39;;;;;;;18.77;8.77;;;9.10;79.50;;;;;;4987301;28;20105;-76
2022/01/04 09:39:13;;;;;;;16.45;8.05;;;9.00;79.50;;;;;;4977641;28;20044;-76
2022/01/04 09:41:42;;;;;;;15.95;7.88;;;9.00;79.50;;;;;;4994581;28;20501;-76
2022/01/04 09:44:09;;;;;;;14.55;7.38;;;9.00;79.50;;;;;;4994964;28;20038;-76
2022/01/04 09:46:35;;;;;;;15.88;7.82;;;9.00;79.50;;;;;;4991389;28;20494;-76
2022/01/04 09:49:01;;;;;;;17.50;7.90;;;9.10;80.00;;;;;;4994765;28;20073;-75
2022/01/04 09:51:29;;;;;;;16.60;8.10;;;9.10;79.50;;;;;;4965693;28;20133;-75
2022/01/04 09:53:54;;;;;;;16.63;7.28;;;9.30;79.70;;;;;;4993277;28;20548;-75
2022/01/04 09:56:20;;;;;;;17.70;7.65;;;9.10;79.50;;;;;;4993232;28;20074;-76
2022/01/04 09:58:46;;;;;;;15.80;8.02;;;9.10;80.00;;;;;;4994862;28;20040;-77
2022/01/04 10:01:26;;;;;;;14.95;6.93;;;9.10;79.50;;;;;;4987182;28;20047;-76
2022/01/04 10:03:52;;;;;;;16.60;7.32;;;9.10;79.60;;;;;;4954868;28;20421;-76
2022/01/04 10:06:19;;;;;;;15.07;6.38;;;9.10;79.50;;;;;;4981485;28;20042;-76
2022/01/04 10:09:04;;;;;;;8.73;3.75;;;9.10;79.50;;;;;;4994577;28;20050;-76
2022/01/04 10:11:31;;;;;;;6.38;2.97;;;9.10;79.30;;;;;;4994424;28;20138;-76
2022/01/04 10:13:58;;;;;;;9.50;2.50;;;9.00;79.00;;;;;;4994373;28;20042;-77
2022/01/04 10:16:24;;;;;;;7.10;2.42;;;9.00;78.90;;;;;;4975287;28;20130;-76
2022/01/04 10:18:50;;;;;;;7.97;2.92;;;9.00;78.80;;;;;;4994289;28;20458;-76
2022/01/04 10:21:16;;;;;;;7.80;1.73;;;8.90;78.60;;;;;;4971213;28;20051;-75
2022/01/04 10:23:51;;;;;;;7.40;2.15;;;8.90;78.40;;;;;;4967001;28;20046;-75
2022/01/04 10:26:27;;;;;;;4.68;1.42;;;8.90;78.40;;;;;;4982523;28;20409;-76
2022/01/04 10:28:53;;;;;;;5.55;1.40;;;8.90;78.40;;;;;;4994343;28;20065;-76
2022/01/04 10:31:19;;;;;;;4.47;1.77;;;8.80;78.30;;;;;;4973094;28;20410;-76
2022/01/04 10:33:51;;;;;;;5.30;2.10;;;8.80;78.30;;;;;;4966736;28;20046;-76
2022/01/04 10:36:19;;;;;;;5.30;1.15;;;8.80;78.30;;;;;;4990755;28;20145;-75
2022/01/04 10:38:46;;;;;;;6.10;1.75;;;8.80;78.30;;;;;;4966225;28;20069;-76
2022/01/04 10:41:25;;;;;;;6.25;1.20;;;8.80;78.20;;;;;;4992666;28;20050;-76
2022/01/04 10:44:10;;;;;;;4.88;1.15;;;8.80;78.20;;;;;;4968545;28;20053;-76
2022/01/04 10:46:38;;;;;;;;;;;8.80;77.90;;;;;;4979874;28;20042;-76
2022/01/04 10:49:14;;;;;;;3.58;1.10;;;8.70;77.60;;;;;;4990339;28;19922;-76
2022/01/04 10:51:40;;;;;;;3.00;1.00;;;8.70;78.00;;;;;;4985990;28;20077;-75
2022/01/04 10:54:06;;;;;;;4.28;1.20;;;8.70;78.00;;;;;;4997683;28;20077;-75
2022/01/04 10:56:37;;;;;;;2.67;0.75;;;8.70;78.00;;;;;;4996223;28;20046;-76
2022/01/04 10:59:09;;;;;;;4.97;0.95;;;8.70;78.00;;;;;;4989834;28;20089;-76
2022/01/04 11:01:45;;;;;;;6.13;1.10;;;8.70;77.90;;;;;;4995864;28;20050;-76
2022/01/04 11:04:21;;;;;;;4.68;1.40;;;8.70;77.70;;;;;;4983824;28;20383;-76
2022/01/04 11:06:48;;;;;;;6.55;1.65;;;8.60;77.60;;;;;;4972020;28;20051;-75
2022/01/04 11:09:15;;;;;;;5.55;1.52;;;8.70;77.60;;;;;;4990614;28;20061;-76
2022/01/04 11:11:42;;;;;;;3.33;1.27;;;8.60;77.80;;;;;;4984732;28;20414;-76
2022/01/04 11:14:09;;;;;;;3.92;1.58;;;8.60;77.40;;;;;;4996873;28;20505;-76
2022/01/04 11:16:35;;;;;;;5.80;1.17;;;8.60;77.50;;;;;;4995329;28;20129;-76
2022/01/04 11:19:02;;;;;;;5.53;1.17;;;8.60;77.60;;;;;;4958952;28;20182;-76
2022/01/04 11:21:35;;;;;;;2.88;0.88;;;8.60;77.50;;;;;;4978826;28;20050;-73
2022/01/04 11:24:06;;;;;;;3.83;1.05;;;8.60;77.30;;;;;;4992562;28;20046;-74
2022/01/04 11:26:33;;;;;;;4.20;1.25;;;8.60;77.20;;;;;;4988669;28;20054;-76
2022/01/04 11:28:59;;;;;;;3.20;1.10;;;8.50;76.90;;;;;;4990842;28;20042;-74
2022/01/04 11:31:52;;;;;;;3.92;0.63;;;8.50;76.60;;;;;;4990966;28;20038;-74
2022/01/04 11:34:43;;;;;;;2.45;0.60;;;8.50;76.30;;;;;;4992658;28;20101;-75
2022/01/04 11:37:19;;;;;;;5.15;0.70;;;8.50;76.40;;;;;;4993852;28;20045;-72
2022/01/04 11:39:45;;;;;;;2.80;0.60;;;8.40;76.20;;;;;;4992074;28;20046;-74
2022/01/04 11:42:37;;;;;;;3.78;0.63;;;8.40;76.20;;;;;;4974217;28;20058;-74
2022/01/04 11:45:09;;;;;;;4.68;1.02;;;8.40;76.20;;;;;;4971855;28;20169;-75
2022/01/04 11:47:35;;;;;;;2.75;0.50;;;8.40;76.10;;;;;;4971931;28;20042;-75
2022/01/04 11:50:17;;;;;;;2.25;0.50;;;8.40;76.00;;;;;;4976691;28;20077;-74
2022/01/04 11:52:55;;;;;;;1.55;0.50;;;8.40;75.90;;;;;;4974888;28;20065;-75
2022/01/04 11:55:31;;;;;;;2.22;0.50;;;8.30;75.90;;;;;;4966902;28;20059;-74
2022/01/04 11:58:08;;;;;;;1.25;0.40;;;8.30;75.90;;;;;;4987933;28;20137;-74
2022/01/04 12:00:38;;;;;;;1.98;0.32;;;8.30;75.90;;;;;;4977607;28;20042;-75
2022/01/04 12:03:07;;;;;;;2.83;0.40;;;8.20;75.70;;;;;;4965527;28;20049;-74
2022/01/04 12:05:33;;;;;;;1.48;0.43;;;8.20;75.60;;;;;;4988530;28;20062;-74
2022/01/04 12:08:03;;;;;;;2.45;0.30;;;8.10;75.50;;;;;;4976699;28;20137;-74
2022/01/04 12:10:30;;;;;;;3.20;0.70;;;8.10;75.50;;;;;;4986030;28;20390;-74
2022/01/04 12:13:07;;;;;;;0.95;0.25;;;8.10;75.70;;;;;;4978203;28;20042;-75
2022/01/04 12:15:32;;;;;;;3.63;0.70;;;8.10;75.80;;;;;;4969033;28;20129;-75
2022/01/04 12:18:02;;;;;;;3.40;0.88;;;8.10;75.80;;;;;;4977717;28;20142;-75
2022/01/04 12:20:43;;;;;;;2.58;0.30;;;8.10;75.70;;;;;;4983837;28;20077;-75
2022/01/04 12:23:30;;;;;;;3.60;0.70;;;8.10;75.70;;;;;;4977451;28;20097;-75
2022/01/04 12:26:04;;;;;;;2.85;0.45;;;8.10;75.50;;;;;;4996416;28;20509;-74
2022/01/04 12:28:30;;;;;;;;;;;8.10;75.40;;;;;;4995277;28;20042;-74
2022/01/04 12:31:16;;;;;;;3.10;0.45;;;8.20;75.60;;;;;;4995310;28;20305;-75
2022/01/04 12:33:52;;;;;;;5.22;0.82;;;8.10;75.70;;;;;;4993987;28;20096;-75
2022/01/04 12:36:34;;;;;;;3.75;0.73;;;8.10;75.50;;;;;;4996439;28;20057;-74
2022/01/04 12:39:07;;;;;;;4.85;0.65;;;8.10;75.20;;;;;;4989928;28;20062;-75
2022/01/04 12:41:35;;;;;;;2.95;0.50;;;8.10;75.00;;;;;;4991740;28;20386;-74
2022/01/04 12:44:02;;;;;;;4.72;0.80;;;8.10;74.90;;;;;;4994405;28;20081;-74
2022/01/04 12:46:40;;;;;;;4.95;0.77;;;8.10;74.80;;;;;;4995936;28;20042;-74
2022/01/04 12:49:10;;;;;;;4.90;0.77;;;8.10;74.60;;;;;;4993035;28;20038;-74
2022/01/04 12:51:47;;;;;;;6.13;1.10;;;8.10;74.60;;;;;;4974300;28;20055;-74